createdAt,value
2019-05-30T00:02:35.731Z,9.8
2019-05-30T00:04:44.430Z,9.8
2019-05-30T00:06:53.894Z,9.8
2019-05-30T00:08:53.110Z,9.8
2019-05-30T00:10:35.765Z,9.7
2019-05-30T00:12:36.279Z,9.7
2019-05-30T00:14:35.905Z,9.7
2019-05-30T00:16:36.310Z,9.7
2019-05-30T00:18:35.949Z,9.7
2019-05-30T00:20:36.510Z,9.7
2019-05-30T00:22:35.951Z,9.7
2019-05-30T00:24:36.483Z,9.7
2019-05-30T00:26:37.063Z,9.7
2019-05-30T00:28:36.485Z,9.7
2019-05-30T00:30:36.056Z,9.7
2019-05-30T00:32:36.530Z,9.7
2019-05-30T00:34:36.233Z,9.7
2019-05-30T00:36:35.702Z,9.7
2019-05-30T00:38:36.373Z,9.7
2019-05-30T00:40:35.964Z,9.7
2019-05-30T00:42:36.467Z,9.7
2019-05-30T00:44:36.000Z,9.7
2019-05-30T00:46:36.564Z,9.7
2019-05-30T00:48:37.114Z,9.8
2019-05-30T00:50:36.622Z,9.8
2019-05-30T00:52:35.983Z,9.8
2019-05-30T00:54:36.483Z,9.8
2019-05-30T00:56:36.045Z,9.8
2019-05-30T00:58:36.500Z,9.8
2019-05-30T01:00:44.790Z,9.9
2019-05-30T01:02:36.129Z,9.9
2019-05-30T01:04:35.580Z,9.9
2019-05-30T01:06:36.128Z,9.9
2019-05-30T01:08:36.500Z,9.9
2019-05-30T01:10:37.103Z,10
2019-05-30T01:12:35.527Z,10
2019-05-30T01:14:35.945Z,10
2019-05-30T01:16:36.486Z,10
2019-05-30T01:18:36.053Z,9.9
2019-05-30T01:20:36.637Z,9.9
2019-05-30T01:22:36.024Z,9.9
2019-05-30T01:24:35.545Z,9.9
2019-05-30T01:26:36.000Z,9.9
2019-05-30T01:28:36.533Z,9.9
2019-05-30T01:30:36.162Z,9.9
2019-05-30T01:32:35.755Z,9.9
2019-05-30T01:34:35.325Z,9.9
2019-05-30T01:36:35.941Z,9.9
2019-05-30T01:38:36.482Z,10
2019-05-30T01:40:36.120Z,9.9
2019-05-30T01:42:36.524Z,9.9
2019-05-30T01:44:37.023Z,9.9
2019-05-30T01:46:36.608Z,9.9
2019-05-30T01:48:36.100Z,9.9
2019-05-30T01:50:36.550Z,9.9
2019-05-30T01:52:35.974Z,9.9
2019-05-30T01:54:36.427Z,9.9
2019-05-30T01:56:36.001Z,9.9
2019-05-30T01:58:35.482Z,9.8
2019-05-30T02:00:36.141Z,9.8
2019-05-30T02:02:36.680Z,9.8
2019-05-30T02:04:44.502Z,9.8
2019-05-30T02:06:47.861Z,9.8
2019-05-30T02:08:44.328Z,9.8
2019-05-30T02:10:44.873Z,9.7
2019-05-30T02:12:36.371Z,9.7
2019-05-30T02:14:36.820Z,9.7
2019-05-30T02:16:35.492Z,9.7
2019-05-30T02:18:36.041Z,9.7
2019-05-30T02:20:35.604Z,9.6
2019-05-30T02:22:36.108Z,9.6
2019-05-30T02:24:35.563Z,9.6
2019-05-30T02:26:37.047Z,9.5
2019-05-30T02:28:36.639Z,9.5
2019-05-30T02:30:36.187Z,9.5
2019-05-30T02:32:35.652Z,9.5
2019-05-30T02:34:36.164Z,9.5
2019-05-30T02:36:36.732Z,9.5
2019-05-30T02:38:36.129Z,9.5
2019-05-30T02:40:36.634Z,9.5
2019-05-30T02:42:36.090Z,9.5
2019-05-30T02:44:35.609Z,9.5
2019-05-30T02:46:37.147Z,9.5
2019-05-30T02:48:59.655Z,9.5
2019-05-30T02:50:37.015Z,9.5
2019-05-30T02:52:36.480Z,9.5
2019-05-30T02:54:36.069Z,9.5
2019-05-30T02:56:35.983Z,9.5
2019-05-30T02:58:35.531Z,9.5
2019-05-30T03:00:36.211Z,9.4
2019-05-30T03:02:35.947Z,9.4
2019-05-30T03:04:36.558Z,9.4
2019-05-30T03:06:36.720Z,9.3
2019-05-30T03:08:36.409Z,9.3
2019-05-30T03:10:36.105Z,9.2
2019-05-30T03:12:36.692Z,9.2
2019-05-30T03:14:36.315Z,9.1
2019-05-30T03:16:36.035Z,9
2019-05-30T03:18:35.757Z,9
2019-05-30T03:20:36.500Z,8.8
2019-05-30T03:22:36.090Z,8.8
2019-05-30T03:24:36.668Z,8.7
2019-05-30T03:26:36.380Z,8.6
2019-05-30T03:28:35.927Z,8.6
2019-05-30T03:30:36.698Z,8.5
2019-05-30T03:33:41.272Z,8.5
2019-05-30T03:34:36.685Z,8.3
2019-05-30T03:36:36.414Z,8.3
2019-05-30T03:38:36.141Z,8.3
2019-05-30T03:40:36.859Z,8.3
2019-05-30T03:42:35.532Z,8.3
2019-05-30T03:46:48.766Z,8.2
2019-05-30T03:48:36.868Z,8.2
2019-05-30T03:50:36.483Z,8
2019-05-30T03:52:36.118Z,8
2019-05-30T03:54:36.263Z,7.9
2019-05-30T03:56:36.905Z,7.9
2019-05-30T03:58:36.541Z,7.9
2019-05-30T04:02:59.749Z,7.9
2019-05-30T04:04:35.798Z,7.9
2019-05-30T04:06:36.536Z,7.9
2019-05-30T04:08:37.176Z,7.9
2019-05-30T04:10:36.759Z,7.7
2019-05-30T04:12:36.455Z,7.7
2019-05-30T04:14:35.882Z,7.7
2019-05-30T04:16:35.624Z,7.7
2019-05-30T04:18:35.429Z,7.7
2019-05-30T04:20:36.176Z,7.7
2019-05-30T04:22:36.756Z,7.7
2019-05-30T04:24:36.224Z,7.7
2019-05-30T04:26:35.971Z,7.7
2019-05-30T04:28:36.541Z,7.7
2019-05-30T04:30:36.155Z,7.7
2019-05-30T04:32:36.705Z,7.7
2019-05-30T04:34:36.180Z,7.8
2019-05-30T04:36:35.899Z,7.8
2019-05-30T04:38:36.417Z,7.8
2019-05-30T04:40:36.086Z,7.8
2019-05-30T04:42:35.725Z,7.8
2019-05-30T04:44:36.345Z,8
2019-05-30T04:46:36.080Z,8
2019-05-30T04:48:35.748Z,8
2019-05-30T04:50:35.510Z,8.2
2019-05-30T04:52:36.136Z,8.2
2019-05-30T04:54:36.609Z,8.3
2019-05-30T04:56:36.798Z,8.4
2019-05-30T04:58:43.425Z,8.4
2019-05-30T05:02:37.217Z,8.6
2019-05-30T05:04:36.577Z,8.6
2019-05-30T05:06:36.228Z,8.6
2019-05-30T05:08:35.866Z,8.6
2019-05-30T05:10:36.553Z,8.9
2019-05-30T05:12:36.147Z,8.9
2019-05-30T05:14:36.632Z,9.2
2019-05-30T05:16:37.145Z,9.2
2019-05-30T05:18:35.870Z,9.2
2019-05-30T05:20:37.062Z,9.4
2019-05-30T05:22:36.627Z,9.4
2019-05-30T05:24:35.946Z,9.7
2019-05-30T05:26:36.534Z,9.8
2019-05-30T05:28:35.935Z,9.8
2019-05-30T05:30:36.458Z,10.2
2019-05-30T05:32:36.122Z,10.2
2019-05-30T05:34:35.497Z,10.6
2019-05-30T05:36:36.027Z,10.6
2019-05-30T05:38:36.778Z,10.6
2019-05-30T05:40:36.293Z,10.9
2019-05-30T05:42:35.904Z,10.9
2019-05-30T05:44:35.229Z,11.2
2019-05-30T05:46:36.781Z,11.3
2019-05-30T05:48:36.141Z,11.3
2019-05-30T05:50:36.663Z,11.5
2019-05-30T05:52:36.109Z,11.5
2019-05-30T05:54:35.491Z,11.5
2019-05-30T05:56:37.043Z,11.8
2019-05-30T05:58:36.970Z,11.8
2019-05-30T06:00:36.460Z,12.3
2019-05-30T06:02:35.999Z,12.3
2019-05-30T06:04:36.325Z,12.3
2019-05-30T06:06:35.874Z,12.3
2019-05-30T06:08:35.310Z,12.3
2019-05-30T06:10:35.858Z,13.4
2019-05-30T06:12:36.293Z,13.4
2019-05-30T06:14:35.969Z,13.4
2019-05-30T06:16:35.591Z,13.7
2019-05-30T06:18:36.125Z,13.7
2019-05-30T06:20:35.685Z,13.7
2019-05-30T06:22:36.129Z,13.7
2019-05-30T06:24:36.596Z,13.7
2019-05-30T06:26:36.251Z,13.7
2019-05-30T06:28:36.678Z,13.7
2019-05-30T06:30:36.269Z,13.5
2019-05-30T06:32:35.759Z,13.5
2019-05-30T06:34:40.595Z,13.5
2019-05-30T06:36:36.178Z,13.8
2019-05-30T06:38:36.734Z,13.8
2019-05-30T06:40:36.481Z,13.9
2019-05-30T06:42:36.277Z,13.9
2019-05-30T06:44:36.698Z,13.9
2019-05-30T06:46:36.440Z,13.8
2019-05-30T06:48:35.910Z,13.8
2019-05-30T06:50:36.457Z,13.6
2019-05-30T06:52:35.892Z,13.6
2019-05-30T06:54:36.449Z,13.6
2019-05-30T06:56:37.026Z,13.5
2019-05-30T06:58:49.507Z,13.5
2019-05-30T07:00:36.890Z,13.4
2019-05-30T07:02:36.595Z,13.4
2019-05-30T07:04:54.559Z,13.4
2019-05-30T07:06:38.295Z,13.4
2019-05-30T07:08:36.350Z,13.4
2019-05-30T07:10:36.799Z,13.4
2019-05-30T07:12:36.388Z,13.4
2019-05-30T07:14:35.802Z,13.4
2019-05-30T07:16:36.476Z,13.4
2019-05-30T07:18:37.394Z,13.4
2019-05-30T07:20:36.022Z,13.4
2019-05-30T07:22:35.603Z,13.4
2019-05-30T07:24:36.104Z,13.4
2019-05-30T07:26:36.765Z,13.5
2019-05-30T07:28:36.392Z,13.5
2019-05-30T07:30:35.940Z,13.2
2019-05-30T07:32:36.442Z,13.2
2019-05-30T07:34:35.932Z,13.2
2019-05-30T07:36:36.794Z,13.1
2019-05-30T07:38:36.278Z,13.1
2019-05-30T07:40:36.842Z,13.2
2019-05-30T07:42:36.319Z,13.2
2019-05-30T07:44:36.878Z,13.2
2019-05-30T07:46:35.776Z,13.3
2019-05-30T07:48:35.471Z,13.3
2019-05-30T07:50:35.991Z,13.8
2019-05-30T07:52:36.495Z,13.8
2019-05-30T07:54:35.920Z,13.8
2019-05-30T07:56:38.308Z,14
2019-05-30T07:58:37.878Z,14
2019-05-30T08:02:36.367Z,14.1
2019-05-30T08:04:36.264Z,14.1
2019-05-30T08:06:36.358Z,14.5
2019-05-30T08:08:38.019Z,14.5
2019-05-30T08:10:36.620Z,14.6
2019-05-30T08:12:36.751Z,14.6
2019-05-30T08:14:37.946Z,14.6
2019-05-30T08:16:37.803Z,14.7
2019-05-30T08:18:36.753Z,14.7
2019-05-30T08:20:36.511Z,14.5
2019-05-30T08:22:36.764Z,14.5
2019-05-30T08:24:37.028Z,14.5
2019-05-30T08:26:36.972Z,14.8
2019-05-30T08:28:36.897Z,14.8
2019-05-30T08:30:37.222Z,14.9
2019-05-30T08:32:38.502Z,14.9
2019-05-30T08:34:36.590Z,14.9
2019-05-30T08:36:37.394Z,15
2019-05-30T08:38:37.542Z,15
2019-05-30T08:40:37.392Z,14.8
2019-05-30T08:42:36.052Z,14.8
2019-05-30T08:44:36.412Z,14.8
2019-05-30T08:46:36.451Z,14.5
2019-05-30T08:48:37.937Z,14.5
2019-05-30T08:50:45.150Z,14.6
2019-05-30T08:52:38.187Z,14.6
2019-05-30T08:54:36.985Z,14.6
2019-05-30T08:56:37.099Z,15
2019-05-30T08:58:38.416Z,15
2019-05-30T09:00:36.235Z,15.1
2019-05-30T09:02:36.985Z,15.1
2019-05-30T09:04:36.280Z,15.1
2019-05-30T09:06:36.370Z,14.9
2019-05-30T09:08:38.126Z,14.9
2019-05-30T09:10:42.293Z,14.7
2019-05-30T09:12:46.002Z,14.7
2019-05-30T09:14:41.557Z,14.7
2019-05-30T09:16:36.417Z,15
2019-05-30T09:18:42.812Z,15
2019-05-30T09:20:43.374Z,15.2
2019-05-30T09:22:41.985Z,15.2
2019-05-30T09:24:36.072Z,15.2
2019-05-30T09:26:40.779Z,15.3
2019-05-30T09:28:41.928Z,15.3
2019-05-30T09:30:41.508Z,15.2
2019-05-30T09:32:34.773Z,15.2
2019-05-30T09:34:34.434Z,15.2
2019-05-30T09:36:34.044Z,15
2019-05-30T09:38:33.639Z,15
2019-05-30T09:52:47.359Z,16
2019-05-30T09:54:37.235Z,16
2019-05-30T09:56:36.907Z,16
2019-05-30T09:58:36.782Z,16
2019-05-30T10:00:36.506Z,16
2019-05-30T10:02:36.088Z,16
2019-05-30T10:04:36.033Z,16
2019-05-30T10:06:35.460Z,16
2019-05-30T10:08:36.211Z,16.4
2019-05-30T10:10:36.689Z,16.4
2019-05-30T10:12:36.305Z,16.8
2019-05-30T10:14:36.068Z,16.8
2019-05-30T10:16:35.780Z,16.8
2019-05-30T10:18:35.601Z,16.7
2019-05-30T10:20:36.357Z,16.7
2019-05-30T10:22:37.568Z,16.7
2019-05-30T10:24:37.081Z,16.7
2019-05-30T10:26:38.504Z,16.7
2019-05-30T10:28:39.065Z,16.3
2019-05-30T10:30:37.676Z,16.3
2019-05-30T10:32:37.135Z,16.1
2019-05-30T10:34:37.440Z,16.1
2019-05-30T10:36:50.266Z,16.1
2019-05-30T10:38:37.059Z,16
2019-05-30T10:40:36.768Z,16
2019-05-30T10:42:36.413Z,16.7
2019-05-30T10:44:36.088Z,16.7
2019-05-30T10:46:36.679Z,16.7
2019-05-30T10:48:36.259Z,16.6
2019-05-30T10:50:35.916Z,16.6
2019-05-30T10:52:35.548Z,17.1
2019-05-30T10:54:36.470Z,17.1
2019-05-30T10:56:36.121Z,17.1
2019-05-30T10:58:37.227Z,17.1
2019-05-30T11:00:36.161Z,17.1
2019-05-30T11:02:37.527Z,17.1
2019-05-30T11:04:37.396Z,17.1
2019-05-30T11:06:37.211Z,17.1
2019-05-30T11:08:43.923Z,16.2
2019-05-30T11:10:41.811Z,16.2
2019-05-30T11:12:38.832Z,16
2019-05-30T11:14:40.763Z,16
2019-05-30T11:16:35.575Z,16
2019-05-30T11:18:41.223Z,15.9
2019-05-30T11:20:38.797Z,15.9
2019-05-30T11:22:39.484Z,15.8
2019-05-30T11:24:42.531Z,15.8
2019-05-30T11:26:40.080Z,15.8
2019-05-30T11:28:40.567Z,16
2019-05-30T11:30:39.771Z,16
2019-05-30T11:32:37.852Z,16.5
2019-05-30T11:34:37.596Z,16.5
2019-05-30T11:36:36.439Z,16.5
2019-05-30T11:38:37.595Z,16.9
2019-05-30T11:40:36.953Z,16.9
2019-05-30T11:42:36.785Z,17
2019-05-30T11:44:36.631Z,17
2019-05-30T11:46:36.443Z,17
2019-05-30T11:48:38.064Z,17.9
2019-05-30T11:50:38.351Z,17.9
2019-05-30T11:52:37.455Z,17.3
2019-05-30T11:54:37.297Z,17.3
2019-05-30T11:56:37.479Z,17.3
2019-05-30T11:58:37.420Z,16.8
2019-05-30T12:02:37.167Z,16.8
2019-05-30T12:04:36.679Z,16.8
2019-05-30T12:06:36.715Z,16.8
2019-05-30T12:08:37.077Z,16.6
2019-05-30T12:10:37.758Z,16.6
2019-05-30T12:12:37.034Z,16.8
2019-05-30T12:14:36.829Z,16.8
2019-05-30T12:16:38.085Z,16.8
2019-05-30T12:18:37.956Z,17.2
2019-05-30T12:20:36.598Z,17.2
2019-05-30T12:22:36.348Z,17.5
2019-05-30T12:24:36.687Z,17.5
2019-05-30T12:26:37.150Z,17.5
2019-05-30T12:28:36.615Z,17
2019-05-30T12:30:36.344Z,17
2019-05-30T12:32:35.814Z,16.7
2019-05-30T12:34:35.542Z,16.7
2019-05-30T12:36:36.187Z,16.7
2019-05-30T12:38:35.772Z,16.5
2019-05-30T12:40:36.502Z,16.5
2019-05-30T12:42:36.038Z,16.3
2019-05-30T12:44:35.791Z,16.3
2019-05-30T12:46:36.371Z,16.3
2019-05-30T12:48:35.992Z,16
2019-05-30T12:50:36.566Z,16
2019-05-30T12:52:35.996Z,16
2019-05-30T12:54:36.628Z,16
2019-05-30T12:56:36.122Z,16
2019-05-30T12:58:36.810Z,16.1
2019-05-30T13:00:35.314Z,16.1
2019-05-30T13:02:35.817Z,16.1
2019-05-30T13:04:36.520Z,16.1
2019-05-30T13:06:35.942Z,16.1
2019-05-30T13:08:36.703Z,15.9
2019-05-30T13:10:36.317Z,15.9
2019-05-30T13:12:35.796Z,15.8
2019-05-30T13:14:36.895Z,15.8
2019-05-30T13:16:36.573Z,15.8
2019-05-30T13:18:36.361Z,15.9
2019-05-30T13:20:36.816Z,15.9
2019-05-30T13:22:36.322Z,15.8
2019-05-30T13:24:37.037Z,15.8
2019-05-30T13:26:36.584Z,15.8
2019-05-30T13:28:36.337Z,15.8
2019-05-30T13:30:36.373Z,15.8
2019-05-30T13:32:34.419Z,15.8
2019-05-30T13:34:36.058Z,15.9
2019-05-30T13:36:35.774Z,15.9
2019-05-30T13:38:35.469Z,15.9
2019-05-30T13:40:36.033Z,15.9
2019-05-30T13:42:35.626Z,15.9
2019-05-30T13:44:36.539Z,16
2019-05-30T13:46:36.559Z,16
2019-05-30T13:48:35.080Z,16
2019-05-30T13:50:36.795Z,16
2019-05-30T13:52:36.340Z,15.9
2019-05-30T13:54:36.193Z,15.9
2019-05-30T13:56:35.868Z,15.9
2019-05-30T13:58:35.609Z,15.9
2019-05-30T14:02:36.416Z,15.9
2019-05-30T14:04:36.146Z,15.9
2019-05-30T14:06:36.348Z,15.9
2019-05-30T14:08:42.631Z,15.8
2019-05-30T14:10:36.268Z,15.8
2019-05-30T14:12:36.338Z,15.8
2019-05-30T14:14:36.284Z,15.8
2019-05-30T14:16:36.447Z,15.8
2019-05-30T14:18:37.728Z,15.6
2019-05-30T14:20:37.424Z,15.6
2019-05-30T14:22:37.102Z,15.5
2019-05-30T14:24:36.956Z,15.5
2019-05-30T14:26:36.629Z,15.5
2019-05-30T14:28:36.266Z,15.4
2019-05-30T14:30:35.800Z,15.4
2019-05-30T14:32:35.284Z,15.4
2019-05-30T14:34:36.111Z,15.5
2019-05-30T14:36:36.715Z,15.5
2019-05-30T14:38:36.433Z,15.6
2019-05-30T14:40:35.894Z,15.6
2019-05-30T14:42:36.530Z,15.6
2019-05-30T14:44:36.507Z,15.6
2019-05-30T14:46:36.014Z,15.6
2019-05-30T14:48:35.903Z,15.6
2019-05-30T14:50:36.554Z,15.6
2019-05-30T14:52:35.959Z,15.6
2019-05-30T14:54:36.535Z,15.6
2019-05-30T14:56:36.057Z,15.6
2019-05-30T14:58:36.631Z,16.2
2019-05-30T15:00:36.059Z,16.2
2019-05-30T15:02:36.743Z,16.2
2019-05-30T15:04:36.343Z,16.2
2019-05-30T15:06:35.823Z,16.2
2019-05-30T15:08:36.846Z,16.1
2019-05-30T15:10:36.355Z,16.1
2019-05-30T15:12:35.929Z,15.8
2019-05-30T15:14:37.180Z,15.8
2019-05-30T15:16:36.626Z,15.8
2019-05-30T15:18:36.842Z,15.9
2019-05-30T15:20:36.459Z,15.9
2019-05-30T15:22:35.947Z,15.9
2019-05-30T15:24:36.699Z,15.9
2019-05-30T15:26:36.315Z,15.9
2019-05-30T15:28:36.925Z,15.9
2019-05-30T15:30:36.510Z,15.9
2019-05-30T15:32:36.022Z,15.9
2019-05-30T15:34:35.940Z,15.8
2019-05-30T15:36:35.538Z,15.8
2019-05-30T15:38:36.270Z,15.7
2019-05-30T15:40:36.875Z,15.7
2019-05-30T15:42:36.303Z,15.7
2019-05-30T15:44:35.913Z,15.7
2019-05-30T15:46:36.805Z,15.7
2019-05-30T15:48:36.579Z,15.8
2019-05-30T15:50:37.133Z,15.8
2019-05-30T15:52:36.598Z,15.9
2019-05-30T15:54:36.243Z,16
2019-05-30T15:56:35.871Z,16
2019-05-30T15:58:36.766Z,15.9
2019-05-30T16:02:36.646Z,15.9
2019-05-30T16:04:36.366Z,15.9
2019-05-30T16:06:36.020Z,15.9
2019-05-30T16:08:35.705Z,15.8
2019-05-30T16:10:37.552Z,15.8
2019-05-30T16:12:37.144Z,15.8
2019-05-30T16:14:36.840Z,15.8
2019-05-30T16:16:41.442Z,15.8
2019-05-30T16:18:36.586Z,15.7
2019-05-30T16:20:34.259Z,15.7
2019-05-30T16:22:34.108Z,15.7
2019-05-30T16:24:33.870Z,15.7
2019-05-30T16:26:36.411Z,15.7
2019-05-30T16:28:36.363Z,15.6
2019-05-30T16:30:39.493Z,15.6
2019-05-30T16:32:37.939Z,15.5
2019-05-30T16:34:36.578Z,15.5
2019-05-30T16:36:36.698Z,15.5
2019-05-30T16:38:36.774Z,15.3
2019-05-30T16:40:36.522Z,15.3
2019-05-30T16:42:36.153Z,15.2
2019-05-30T16:44:35.934Z,15.1
2019-05-30T16:46:36.608Z,15.1
2019-05-30T16:48:36.296Z,14.9
2019-05-30T16:50:36.478Z,14.9
2019-05-30T16:52:36.068Z,14.8
2019-05-30T16:54:35.856Z,14.7
2019-05-30T16:56:36.409Z,14.7
2019-05-30T16:58:36.048Z,14.4
2019-05-30T17:00:35.699Z,14.4
2019-05-30T17:02:36.335Z,14.4
2019-05-30T17:04:35.927Z,14.4
2019-05-30T17:06:36.578Z,14.1
2019-05-30T17:08:36.555Z,14.1
2019-05-30T17:10:36.230Z,14.1
2019-05-30T17:12:35.835Z,14
2019-05-30T17:14:36.359Z,13.9
2019-05-30T17:16:35.880Z,13.9
2019-05-30T17:18:35.654Z,13.9
2019-05-30T17:20:36.818Z,13.9
2019-05-30T17:22:34.994Z,13.9
2019-05-30T17:24:36.628Z,13.9
2019-05-30T17:26:36.080Z,13.8
2019-05-30T17:28:36.646Z,13.8
2019-05-30T17:30:36.368Z,13.8
2019-05-30T17:32:36.824Z,13.8
2019-05-30T17:34:36.667Z,13.8
2019-05-30T17:36:36.215Z,13.8
2019-05-30T17:38:35.765Z,13.8
2019-05-30T17:40:49.979Z,13.8
2019-05-30T17:42:36.870Z,13.7
2019-05-30T17:44:36.490Z,13.7
2019-05-30T17:46:35.928Z,13.7
2019-05-30T17:48:36.820Z,13.6
2019-05-30T17:50:34.921Z,13.6
2019-05-30T17:52:36.329Z,13.6
2019-05-30T17:54:36.901Z,13.6
2019-05-30T17:56:35.441Z,13.6
2019-05-30T17:58:35.960Z,13.5
2019-05-30T18:00:36.682Z,13.5
2019-05-30T18:02:36.329Z,13.5
2019-05-30T18:04:36.035Z,13.5
2019-05-30T18:06:35.781Z,13.4
2019-05-30T18:08:36.337Z,13.4
2019-05-30T18:10:37.038Z,13.4
2019-05-30T18:12:36.656Z,13.4
2019-05-30T18:14:36.234Z,13.3
2019-05-30T18:16:36.680Z,13.3
2019-05-30T18:18:36.254Z,13.2
2019-05-30T18:20:49.257Z,13.2
2019-05-30T18:22:36.258Z,13.2
2019-05-30T18:24:35.909Z,13.2
2019-05-30T18:26:36.440Z,13.1
2019-05-30T18:28:35.910Z,13.1
2019-05-30T18:30:35.534Z,13.1
2019-05-30T18:32:36.002Z,13.1
2019-05-30T18:34:35.717Z,13
2019-05-30T18:36:36.288Z,13
2019-05-30T18:38:35.752Z,13
2019-05-30T18:40:36.357Z,13
2019-05-30T18:42:36.048Z,13
2019-05-30T18:44:35.893Z,13
2019-05-30T18:46:39.194Z,12.9
2019-05-30T18:48:36.693Z,12.9
2019-05-30T18:50:36.406Z,12.9
2019-05-30T18:52:37.362Z,12.9
2019-05-30T18:54:37.362Z,12.9
2019-05-30T18:56:37.526Z,12.8
2019-05-30T18:58:35.992Z,12.8
2019-05-30T19:00:36.000Z,12.8
2019-05-30T19:02:36.195Z,12.8
2019-05-30T19:04:34.349Z,12.8
2019-05-30T19:06:36.878Z,12.7
2019-05-30T19:08:36.714Z,12.7
2019-05-30T19:10:37.231Z,12.7
2019-05-30T19:12:37.162Z,12.6
2019-05-30T19:14:37.949Z,12.6
2019-05-30T19:16:37.364Z,12.6
2019-05-30T19:18:36.293Z,12.6
2019-05-30T19:20:37.038Z,12.6
2019-05-30T19:22:37.160Z,12.6
2019-05-30T19:24:36.929Z,12.5
2019-05-30T19:26:37.340Z,12.5
2019-05-30T19:28:37.187Z,12.5
2019-05-30T19:30:39.014Z,12.5
2019-05-30T19:32:37.519Z,12.5
2019-05-30T19:34:37.468Z,12.5
2019-05-30T19:36:36.969Z,12.5
2019-05-30T19:38:37.729Z,12.4
2019-05-30T19:40:37.676Z,12.4
2019-05-30T19:42:38.019Z,12.4
2019-05-30T19:44:42.094Z,12.4
2019-05-30T19:46:38.040Z,12.3
2019-05-30T19:48:37.068Z,12.3
2019-05-30T19:50:37.372Z,12.3
2019-05-30T19:52:37.410Z,12.3
2019-05-30T19:54:35.732Z,12.3
2019-05-30T19:56:42.369Z,12.2
2019-05-30T19:58:38.203Z,12.2
2019-05-30T20:02:34.493Z,12.2
2019-05-30T20:04:34.762Z,12.2
2019-05-30T20:06:39.316Z,12.2
2019-05-30T20:08:56.360Z,12.1
2019-05-30T20:10:37.812Z,12.1
2019-05-30T20:12:38.765Z,12.1
2019-05-30T20:14:37.710Z,12.1
2019-05-30T20:16:36.334Z,12.1
2019-05-30T20:18:36.138Z,12
2019-05-30T20:20:58.536Z,12
2019-05-30T20:22:38.409Z,12
2019-05-30T20:24:36.693Z,12
2019-05-30T20:26:37.201Z,12
2019-05-30T20:28:37.092Z,12
2019-05-30T20:30:37.637Z,12
2019-05-30T20:32:37.026Z,12
2019-05-30T20:34:37.262Z,12.1
2019-05-30T20:36:34.992Z,12.1
2019-05-30T20:38:37.098Z,12.1
2019-05-30T20:40:37.443Z,12.1
2019-05-30T20:42:37.279Z,12.1
2019-05-30T20:44:37.171Z,12.1
2019-05-30T20:46:37.606Z,12.1
2019-05-30T20:48:44.667Z,12.1
2019-05-30T20:50:37.377Z,12.1
2019-05-30T20:52:45.761Z,12.1
2019-05-30T20:54:37.803Z,12.1
2019-05-30T20:56:37.875Z,12.1
2019-05-30T20:58:37.857Z,12.1
2019-05-30T21:00:38.031Z,12.1
2019-05-30T21:02:38.491Z,12.1
2019-05-30T21:04:38.500Z,12.1
2019-05-30T21:06:37.186Z,12.1
2019-05-30T21:08:37.157Z,12
2019-05-30T21:10:36.900Z,12
2019-05-30T21:12:49.201Z,12
2019-05-30T21:14:39.127Z,11.9
2019-05-30T21:16:37.831Z,11.9
2019-05-30T21:18:36.221Z,11.9
2019-05-30T21:20:36.439Z,11.9
2019-05-30T21:24:36.951Z,11.8
2019-05-30T21:26:36.813Z,11.8
2019-05-30T21:28:37.181Z,11.8
2019-05-30T21:30:37.273Z,11.7
2019-05-30T21:32:42.202Z,11.7
2019-05-30T21:34:39.591Z,11.6
2019-05-30T21:36:37.855Z,11.6
2019-05-30T21:38:36.170Z,11.6
2019-05-30T21:40:35.907Z,11.6
2019-05-30T21:43:04.574Z,11.6
2019-05-30T21:44:36.230Z,11.5
2019-05-30T21:53:04.932Z,11.5
2019-05-30T21:54:35.603Z,11.4
2019-05-30T21:56:36.054Z,11.4
2019-05-30T21:58:36.426Z,11.3
2019-05-30T22:00:36.090Z,11.3
2019-05-30T22:02:36.495Z,11.3
2019-05-30T22:04:44.939Z,11.3
2019-05-30T22:06:51.566Z,11.3
2019-05-30T22:08:52.206Z,11.2
2019-05-30T22:10:35.647Z,11.2
2019-05-30T22:12:36.406Z,11.2
2019-05-30T22:14:36.017Z,11.1
2019-05-30T22:16:36.527Z,11.1
2019-05-30T22:18:36.130Z,11.1
2019-05-30T22:20:35.628Z,11
2019-05-30T22:22:36.033Z,11
2019-05-30T22:24:36.652Z,11
2019-05-30T22:26:36.226Z,11
2019-05-30T22:28:35.648Z,11
2019-05-30T22:30:36.188Z,10.9
2019-05-30T22:32:36.679Z,10.9
2019-05-30T22:34:36.269Z,10.8
2019-05-30T22:36:35.808Z,10.7
2019-05-30T22:38:36.363Z,10.7
2019-05-30T22:40:36.114Z,10.6
2019-05-30T22:42:36.596Z,10.6
2019-05-30T22:44:36.183Z,10.4
2019-05-30T22:46:35.754Z,10.4
2019-05-30T22:48:36.210Z,10.4
2019-05-30T22:50:36.827Z,10.2
2019-05-30T22:52:36.218Z,10.2
2019-05-30T22:54:36.839Z,10.1
2019-05-30T22:56:36.347Z,10
2019-05-30T22:58:35.883Z,10
2019-05-30T23:00:36.455Z,9.9
2019-05-30T23:02:36.976Z,9.9
2019-05-30T23:04:36.458Z,9.7
2019-05-30T23:06:35.953Z,9.7
2019-05-30T23:08:36.406Z,9.7
2019-05-30T23:10:36.094Z,9.5
2019-05-30T23:12:35.560Z,9.5
2019-05-30T23:14:36.117Z,9.3
2019-05-30T23:16:36.563Z,9.3
2019-05-30T23:18:36.119Z,9.3
2019-05-30T23:20:35.670Z,9.1
2019-05-30T23:22:36.115Z,9.1
2019-05-30T23:24:35.645Z,9
2019-05-30T23:26:36.149Z,9
2019-05-30T23:28:36.650Z,9
2019-05-30T23:30:36.199Z,8.8
2019-05-30T23:32:35.611Z,8.8
2019-05-30T23:34:36.388Z,8.7
2019-05-30T23:36:36.864Z,8.7
2019-05-30T23:38:36.351Z,8.7
2019-05-30T23:40:36.108Z,8.6
2019-05-30T23:42:35.539Z,8.6
2019-05-30T23:44:36.022Z,8.4
2019-05-30T23:46:36.580Z,8.4
2019-05-30T23:48:36.098Z,8.4
2019-05-30T23:50:35.647Z,8.2
2019-05-30T23:52:36.157Z,8.2
2019-05-30T23:54:35.675Z,8.1
2019-05-30T23:56:36.108Z,8.1
2019-05-30T23:58:35.560Z,8.1
